createdAt,value
2019-04-05T00:00:46.069Z,74.17
2019-04-05T00:03:19.693Z,73.49
2019-04-05T00:05:50.514Z,74.18
2019-04-05T00:08:22.758Z,73.71
2019-04-05T00:11:03.123Z,73.10
2019-04-05T00:13:34.566Z,73.01
2019-04-05T00:16:05.248Z,72.24
2019-04-05T00:18:38.741Z,71.62
2019-04-05T00:21:09.689Z,72.07
2019-04-05T00:23:43.524Z,71.08
2019-04-05T00:26:14.664Z,72.04
2019-04-05T00:28:45.360Z,71.90
2019-04-05T00:31:16.087Z,71.00
2019-04-05T00:33:46.866Z,71.30
2019-04-05T00:36:17.586Z,70.79
2019-04-05T00:38:48.318Z,70.98
2019-04-05T00:41:20.015Z,72.40
2019-04-05T00:43:50.751Z,72.91
2019-04-05T00:46:23.385Z,72.82
2019-04-05T00:48:55.128Z,73.75
2019-04-05T00:51:27.211Z,73.07
2019-04-05T00:53:57.951Z,73.45
2019-04-05T00:56:28.708Z,74.86
2019-04-05T00:58:59.559Z,74.94
2019-04-05T01:01:30.728Z,75.84
2019-04-05T01:04:01.378Z,77.15
2019-04-05T01:06:32.580Z,75.90
2019-04-05T01:09:04.521Z,77.23
2019-04-05T01:11:35.178Z,76.91
2019-04-05T01:14:06.525Z,77.00
2019-04-05T01:16:37.281Z,78.74
2019-04-05T01:19:09.691Z,77.97
2019-04-05T01:21:46.835Z,77.88
2019-04-05T01:24:20.972Z,77.22
2019-04-05T01:26:52.334Z,77.90
2019-04-05T01:29:23.959Z,77.74
2019-04-05T01:31:55.782Z,77.42
2019-04-05T01:34:27.475Z,76.55
2019-04-05T01:36:58.555Z,75.75
2019-04-05T01:39:29.324Z,75.40
2019-04-05T01:42:02.831Z,76.10
2019-04-05T01:44:34.193Z,75.39
2019-04-05T01:47:05.081Z,75.42
2019-04-05T01:49:36.272Z,75.87
2019-04-05T01:52:07.438Z,75.92
2019-04-05T01:54:38.324Z,76.26
2019-04-05T01:57:09.062Z,74.64
2019-04-05T01:59:39.827Z,75.42
2019-04-05T02:02:12.183Z,74.46
2019-04-05T02:04:42.967Z,74.14
2019-04-05T02:07:14.628Z,73.96
2019-04-05T02:09:46.348Z,74.35
2019-04-05T02:12:16.965Z,74.47
2019-04-05T02:14:48.308Z,73.73
2019-04-05T02:17:19.602Z,74.29
2019-04-05T02:19:57.741Z,74.33
2019-04-05T02:22:28.552Z,74.09
2019-04-05T02:24:59.743Z,74.98
2019-04-05T02:27:31.650Z,74.08
2019-04-05T02:30:02.584Z,74.10
2019-04-05T02:32:33.604Z,73.66
2019-04-05T02:35:06.142Z,75.04
2019-04-05T02:37:37.175Z,74.47
2019-04-05T02:40:13.039Z,75.31
2019-04-05T02:42:48.065Z,75.30
2019-04-05T02:45:21.191Z,74.68
2019-04-05T02:47:59.949Z,75.39
2019-04-05T02:50:34.862Z,74.73
2019-04-05T02:53:09.643Z,74.97
2019-04-05T02:55:43.445Z,75.60
2019-04-05T02:58:17.543Z,74.90
2019-04-05T03:00:54.770Z,74.89
2019-04-05T03:03:26.943Z,74.41
2019-04-05T03:05:58.767Z,75.02
2019-04-05T03:08:29.949Z,74.57
2019-04-05T03:11:19.940Z,74.69
2019-04-05T03:13:55.591Z,74.26
2019-04-05T03:16:56.218Z,74.14
2019-04-05T03:19:33.938Z,75.03
2019-04-05T03:22:11.020Z,76.45
2019-04-05T03:24:46.352Z,76.80
2019-04-05T03:27:27.493Z,77.13
2019-04-05T03:29:58.544Z,77.07
2019-04-05T03:32:31.300Z,77.25
2019-04-05T03:35:03.534Z,76.64
2019-04-05T03:37:34.643Z,76.45
2019-04-05T03:40:06.028Z,76.88
2019-04-05T03:42:37.232Z,76.34
2019-04-05T03:45:09.777Z,75.86
2019-04-05T03:47:41.894Z,76.86
2019-04-05T03:50:14.400Z,77.01
2019-04-05T03:52:46.482Z,77.79
2019-04-05T03:55:17.750Z,77.18
2019-04-05T03:57:49.354Z,78.74
2019-04-05T04:00:20.509Z,79.52
2019-04-05T04:02:51.581Z,79.19
2019-04-05T04:05:22.402Z,79.25
2019-04-05T04:07:53.113Z,79.21
2019-04-05T04:10:27.447Z,79.04
2019-04-05T04:12:59.018Z,77.90
2019-04-05T04:15:30.349Z,78.80
2019-04-05T04:18:03.613Z,79.62
2019-04-05T04:20:50.381Z,79.98
2019-04-05T04:23:24.897Z,78.09
2019-04-05T04:25:56.848Z,79.26
2019-04-05T04:28:29.371Z,78.03
2019-04-05T04:31:00.313Z,79.04
2019-04-05T04:33:31.230Z,80.19
2019-04-05T04:36:04.231Z,79.18
2019-04-05T04:38:35.211Z,79.65
2019-04-05T04:41:08.120Z,80.46
2019-04-05T04:43:40.820Z,79.43
2019-04-05T04:46:13.369Z,78.96
2019-04-05T04:48:45.844Z,78.80
2019-04-05T04:51:17.280Z,78.64
2019-04-05T04:53:48.370Z,78.24
2019-04-05T04:56:19.246Z,78.38
2019-04-05T04:58:50.051Z,79.65
2019-04-05T05:01:22.337Z,80.08
2019-04-05T05:03:53.275Z,79.38
2019-04-05T05:06:24.152Z,79.76
2019-04-05T05:08:55.324Z,81.42
2019-04-05T05:11:26.300Z,81.16
2019-04-05T05:13:57.417Z,81.82
2019-04-05T05:16:29.795Z,79.87
2019-04-05T05:19:01.624Z,80.35
2019-04-05T05:21:32.361Z,79.51
2019-04-05T05:24:03.163Z,79.43
2019-04-05T05:26:35.615Z,78.18
2019-04-05T05:29:09.212Z,78.90
2019-04-05T05:31:42.870Z,78.61
2019-04-05T05:34:20.370Z,80.15
2019-04-05T05:36:51.671Z,79.93
2019-04-05T05:39:30.177Z,79.87
2019-04-05T05:42:07.545Z,79.12
2019-04-05T05:44:38.510Z,79.78
2019-04-05T05:47:10.265Z,79.69
2019-04-05T05:49:42.725Z,80.28
2019-04-05T06:28:01.534Z,79.28
2019-04-05T06:39:24.683Z,76.90
2019-04-05T06:42:02.162Z,76.65
2019-04-05T06:44:45.076Z,75.18
2019-04-05T06:47:21.750Z,75.23
2019-04-05T06:49:56.339Z,73.63
2019-04-05T06:52:29.587Z,71.73
2019-04-05T06:55:00.905Z,73.62
2019-04-05T06:57:33.015Z,72.06
2019-04-05T07:00:11.312Z,72.69
2019-04-05T07:02:42.975Z,71.44
2019-04-05T07:05:14.815Z,72.67
2019-04-05T07:07:48.035Z,72.02
2019-04-05T07:10:20.059Z,69.43
2019-04-05T07:12:52.953Z,69.53
2019-04-05T07:15:25.933Z,69.70
2019-04-05T07:17:56.703Z,68.35
2019-04-05T07:20:27.479Z,67.97
2019-04-05T07:23:01.216Z,67.38
2019-04-05T07:25:37.426Z,67.48
2019-04-05T07:28:15.586Z,66.71
2019-04-05T07:31:33.553Z,66.48
2019-04-05T08:07:21.818Z,50.19
2019-04-05T08:25:41.062Z,49.93
2019-04-05T09:22:03.399Z,37.51
2019-04-05T09:24:48.577Z,37.26
2019-04-05T09:27:20.624Z,35.45
2019-04-05T09:37:28.244Z,31.96
2019-04-05T09:40:27.830Z,31.91
2019-04-05T09:43:01.054Z,30.42
2019-04-05T09:46:26.224Z,29.72
2019-04-05T09:57:25.120Z,27.54
2019-04-05T10:01:00.399Z,26.96
2019-04-05T10:04:46.266Z,26.75
2019-04-05T10:08:39.109Z,24.54
2019-04-05T10:37:41.767Z,21.87
2019-04-05T10:40:14.191Z,22.13
2019-04-05T10:42:44.826Z,22.45
2019-04-05T10:45:17.447Z,22.10
2019-04-05T10:47:48.113Z,21.88
2019-04-05T10:50:19.785Z,21.84
2019-04-05T10:52:50.455Z,21.69
2019-04-05T10:55:21.078Z,22.03
2019-04-05T10:57:51.758Z,23.04
2019-04-05T11:00:23.737Z,23.45
2019-04-05T11:02:54.417Z,23.39
2019-04-05T11:05:25.137Z,22.46
2019-04-05T11:07:55.780Z,22.29
2019-04-05T11:10:26.652Z,22.03
2019-04-05T11:12:57.293Z,21.96
2019-04-05T11:15:28.788Z,20.97
2019-04-05T11:18:00.652Z,20.71
2019-04-05T11:20:31.245Z,21.03
2019-04-05T11:23:01.894Z,20.54
2019-04-05T11:25:33.520Z,20.23
2019-04-05T11:28:04.183Z,20.17
2019-04-05T11:30:47.218Z,19.20
2019-04-05T11:33:19.642Z,19.68
2019-04-05T11:35:50.255Z,19.81
2019-04-05T11:38:24.083Z,19.91
2019-04-05T11:40:54.585Z,19.90
2019-04-05T11:43:31.229Z,24.51
2019-04-05T11:46:01.586Z,25.63
2019-04-05T11:48:34.431Z,24.67
2019-04-05T11:51:05.069Z,24.89
2019-04-05T11:53:35.685Z,24.89
2019-04-05T11:56:14.443Z,21.08
2019-04-05T11:58:40.205Z,20.45
2019-04-05T12:01:29.719Z,20.24
2019-04-05T12:04:00.365Z,19.68
2019-04-05T12:06:31.037Z,18.75
2019-04-05T12:09:02.117Z,18.68
2019-04-05T12:11:32.817Z,18.72
2019-04-05T12:14:03.412Z,18.74
2019-04-05T12:16:35.991Z,19.25
2019-04-05T12:19:06.689Z,18.09
2019-04-05T12:21:37.353Z,17.51
2019-04-05T12:24:07.964Z,18.22
2019-04-05T12:26:38.794Z,18.50
2019-04-05T12:29:09.378Z,18.42
2019-04-05T12:31:40.135Z,18.43
2019-04-05T12:34:10.783Z,18.33
2019-04-05T12:36:41.593Z,18.53
2019-04-05T12:39:12.222Z,18.91
2019-04-05T12:41:44.879Z,19.39
2019-04-05T12:44:15.545Z,19.49
2019-04-05T12:46:46.383Z,19.35
2019-04-05T12:49:16.939Z,19.26
2019-04-05T12:51:47.555Z,19.22
2019-04-05T12:54:18.116Z,20.30
2019-04-05T12:56:48.893Z,20.18
2019-04-05T12:59:19.506Z,19.40
2019-04-05T13:01:50.262Z,19.57
2019-04-05T13:04:21.362Z,19.54
2019-04-05T13:06:52.822Z,20.68
2019-04-05T13:09:24.711Z,21.23
2019-04-05T13:11:57.291Z,21.68
2019-04-05T13:14:28.203Z,20.84
2019-04-05T13:17:01.707Z,20.68
2019-04-05T13:19:31.459Z,22.72
2019-04-05T13:22:02.814Z,25.36
2019-04-05T13:24:34.198Z,26.83
2019-04-05T13:27:05.258Z,27.63
2019-04-05T13:29:36.027Z,27.46
2019-04-05T13:32:06.693Z,25.60
2019-04-05T13:34:37.498Z,24.37
2019-04-05T13:37:19.756Z,23.53
2019-04-05T13:39:40.740Z,23.89
2019-04-05T13:42:11.463Z,26.06
2019-04-05T13:44:42.394Z,27.62
2019-04-05T13:47:13.081Z,25.60
2019-04-05T13:49:43.845Z,24.83
2019-04-05T13:52:14.845Z,24.83
2019-04-05T13:54:45.600Z,23.40
2019-04-05T13:57:16.337Z,22.42
2019-04-05T13:59:47.068Z,24.02
2019-04-05T14:02:20.741Z,25.96
2019-04-05T14:04:53.473Z,23.84
2019-04-05T14:07:24.480Z,22.92
2019-04-05T14:09:55.437Z,22.86
2019-04-05T14:12:26.293Z,22.38
2019-04-05T14:14:57.125Z,23.45
2019-04-05T14:17:27.817Z,24.31
2019-04-05T14:19:59.627Z,24.57
2019-04-05T14:22:30.511Z,25.39
2019-04-05T14:25:01.314Z,25.25
2019-04-05T14:27:34.788Z,25.50
2019-04-05T14:30:06.225Z,26.31
2019-04-05T14:32:37.006Z,28.21
2019-04-05T14:35:09.084Z,28.81
2019-04-05T14:37:39.724Z,29.09
2019-04-05T14:40:13.926Z,28.99
2019-04-05T14:42:44.998Z,29.53
2019-04-05T14:45:16.934Z,30.87
2019-04-05T14:47:47.710Z,32.46
2019-04-05T14:50:18.640Z,30.93
2019-04-05T14:52:50.833Z,31.14
2019-04-05T14:55:21.475Z,32.75
2019-04-05T14:57:54.464Z,32.92
2019-04-05T15:00:25.307Z,32.39
2019-04-05T15:02:56.199Z,32.17
2019-04-05T15:05:29.520Z,33.18
2019-04-05T15:08:00.348Z,33.31
2019-04-05T15:10:31.457Z,34.58
2019-04-05T15:13:02.145Z,35.96
2019-04-05T15:15:33.193Z,35.97
2019-04-05T15:18:05.623Z,35.87
2019-04-05T15:20:36.678Z,35.34
2019-04-05T15:23:09.545Z,35.64
2019-04-05T15:25:41.216Z,35.32
2019-04-05T15:28:11.988Z,36.24
2019-04-05T15:30:42.772Z,37.38
2019-04-05T15:33:13.594Z,38.68
2019-04-05T15:35:47.444Z,39.17
2019-04-05T15:38:18.372Z,39.13
2019-04-05T15:40:49.127Z,40.17
2019-04-05T15:43:20.266Z,40.57
2019-04-05T15:45:51.315Z,40.23
2019-04-05T15:48:22.823Z,39.89
2019-04-05T15:50:57.819Z,40.45
2019-04-05T15:53:26.042Z,40.87
2019-04-05T15:55:56.745Z,41.94
2019-04-05T15:58:27.431Z,41.08
2019-04-05T16:00:58.338Z,40.80
2019-04-05T16:03:32.015Z,41.82
2019-04-05T16:06:01.531Z,41.52
2019-04-05T16:08:32.684Z,43.37
2019-04-05T16:11:03.417Z,43.59
2019-04-05T16:13:34.107Z,43.21
2019-04-05T16:16:05.832Z,43.80
2019-04-05T16:18:37.381Z,43.36
2019-04-05T16:21:08.279Z,43.33
2019-04-05T16:23:39.088Z,43.53
2019-04-05T16:26:11.421Z,44.98
2019-04-05T16:28:42.180Z,45.76
2019-04-05T16:31:51.837Z,45.91
2019-04-05T16:34:25.551Z,45.97
2019-04-05T16:36:57.926Z,46.50
2019-04-05T16:39:35.881Z,47.97
2019-04-05T16:42:10.011Z,47.99
2019-04-05T16:44:57.396Z,47.91
2019-04-05T16:47:31.225Z,47.61
2019-04-05T16:50:03.617Z,47.65
2019-04-05T16:52:53.834Z,47.17
2019-04-05T16:55:24.873Z,48.02
2019-04-05T16:57:55.953Z,48.26
2019-04-05T17:00:27.443Z,48.43
2019-04-05T17:02:58.796Z,49.89
2019-04-05T17:05:29.551Z,50.13
2019-04-05T17:08:00.496Z,51.19
2019-04-05T17:10:33.022Z,50.09
2019-04-05T17:13:05.251Z,50.06
2019-04-05T17:15:36.101Z,51.16
2019-04-05T17:18:08.598Z,50.91
2019-04-05T17:20:41.182Z,50.49
2019-04-05T17:23:12.508Z,50.75
2019-04-05T17:25:43.567Z,51.48
2019-04-05T17:28:14.794Z,51.78
2019-04-05T17:30:46.869Z,51.67
2019-04-05T17:33:17.900Z,52.82
2019-04-05T17:35:51.169Z,52.76
2019-04-05T17:38:22.366Z,53.57
2019-04-05T17:40:53.430Z,53.93
2019-04-05T17:43:25.259Z,54.87
2019-04-05T17:45:56.990Z,55.41
2019-04-05T17:48:30.740Z,54.48
2019-04-05T17:51:02.139Z,55.16
2019-04-05T17:53:33.580Z,54.89
2019-04-05T17:56:05.015Z,53.91
2019-04-05T17:58:37.326Z,54.97
2019-04-05T18:01:08.499Z,55.77
2019-04-05T18:03:39.804Z,55.52
2019-04-05T18:06:10.941Z,56.15
2019-04-05T18:08:42.174Z,56.96
2019-04-05T18:11:13.491Z,56.99
2019-04-05T18:13:44.875Z,57.96
2019-04-05T18:16:15.875Z,57.81
2019-04-05T18:18:46.976Z,57.51
2019-04-05T18:21:17.981Z,56.80
2019-04-05T18:23:49.042Z,58.21
2019-04-05T18:26:20.639Z,57.97
2019-04-05T18:28:53.006Z,57.21
2019-04-05T18:31:24.922Z,58.16
2019-04-05T18:33:55.863Z,57.34
2019-04-05T18:36:26.822Z,58.38
2019-04-05T18:38:59.687Z,57.81
2019-04-05T18:41:35.271Z,57.72
2019-04-05T18:44:07.469Z,57.33
2019-04-05T18:46:38.453Z,57.90
2019-04-05T18:49:11.174Z,57.81
2019-04-05T18:51:45.074Z,56.95
2019-04-05T18:54:17.218Z,57.50
2019-04-05T18:57:10.054Z,57.52
2019-04-05T18:59:41.074Z,59.36
2019-04-05T19:02:14.960Z,59.24
2019-04-05T19:04:46.852Z,59.73
2019-04-05T19:07:18.743Z,59.95
2019-04-05T19:09:49.492Z,60.04
2019-04-05T19:12:20.626Z,60.59
2019-04-05T19:14:53.326Z,59.53
2019-04-05T19:17:24.755Z,59.04
2019-04-05T19:19:55.935Z,59.52
2019-04-05T19:22:27.048Z,59.27
2019-04-05T19:24:58.267Z,59.63
2019-04-05T19:27:30.010Z,59.44
2019-04-05T19:50:40.659Z,60.20
2019-04-05T19:53:13.042Z,61.85
2019-04-05T19:55:43.938Z,61.17
2019-04-05T19:58:14.853Z,60.62
2019-04-05T20:00:45.760Z,61.52
2019-04-05T20:03:16.955Z,60.72
2019-04-05T20:05:49.099Z,61.17
2019-04-05T20:08:19.942Z,61.48
2019-04-05T20:10:52.882Z,62.43
2019-04-05T20:13:23.793Z,62.07
2019-04-05T20:15:54.868Z,63.55
2019-04-05T20:18:29.885Z,62.53
2019-04-05T20:21:02.472Z,61.93
2019-04-05T20:24:14.595Z,62.14
2019-04-05T20:26:48.487Z,61.43
2019-04-05T20:29:21.683Z,61.81
2019-04-05T20:31:52.724Z,62.36
2019-04-05T20:34:24.283Z,63.84
2019-04-05T20:36:57.507Z,63.61
2019-04-05T20:44:49.370Z,63.02
2019-04-05T20:47:21.046Z,63.75
2019-04-05T20:49:52.145Z,62.16
2019-04-05T20:52:23.464Z,61.52
2019-04-05T20:54:54.609Z,62.07
2019-04-05T20:57:25.615Z,62.40
2019-04-05T20:59:56.403Z,62.33
2019-04-05T21:02:27.182Z,63.11
2019-04-05T21:04:58.986Z,63.73
2019-04-05T21:07:29.722Z,63.16
2019-04-05T21:10:00.550Z,63.67
2019-04-05T21:12:31.290Z,62.99
2019-04-05T21:15:02.017Z,62.43
2019-04-05T21:17:32.964Z,62.56
2019-04-05T21:20:05.456Z,62.33
2019-04-05T21:22:39.046Z,61.78
2019-04-05T21:25:11.978Z,62.23
2019-04-05T21:27:42.785Z,63.37
2019-04-05T21:30:14.155Z,63.75
2019-04-05T21:32:45.010Z,63.16
2019-04-05T21:35:16.273Z,64.41
2019-04-05T21:37:47.174Z,64.15
2019-04-05T21:40:19.388Z,65.37
2019-04-05T21:42:50.075Z,64.95
2019-04-05T21:45:20.948Z,66.09
2019-04-05T21:47:52.151Z,65.70
2019-04-05T21:50:25.503Z,65.32
2019-04-05T21:52:56.552Z,65.02
2019-04-05T21:55:28.315Z,66.01
2019-04-05T21:57:59.120Z,66.18
2019-04-05T22:00:44.206Z,66.03
2019-04-05T22:03:15.307Z,66.89
2019-04-05T22:05:50.563Z,66.77
2019-04-05T22:08:21.226Z,66.25
2019-04-05T22:10:52.431Z,66.26
2019-04-05T22:13:26.367Z,65.61
2019-04-05T22:15:57.179Z,65.58
2019-04-05T22:18:29.171Z,66.78
2019-04-05T22:20:59.933Z,67.62
2019-04-05T22:23:31.388Z,66.99
2019-04-05T22:26:02.255Z,67.44
2019-04-05T22:28:33.343Z,66.90
2019-04-05T22:31:04.109Z,68.44
2019-04-05T22:33:36.515Z,67.35
2019-04-05T22:36:07.687Z,67.32
2019-04-05T22:38:38.428Z,67.57
2019-04-05T22:41:09.176Z,67.86
2019-04-05T22:43:40.204Z,67.16
2019-04-05T22:46:12.599Z,67.53
2019-04-05T22:48:43.699Z,68.01
2019-04-05T22:51:17.375Z,67.14
2019-04-05T22:53:48.256Z,67.27
2019-04-05T22:56:20.879Z,67.11
2019-04-05T22:58:51.821Z,68.12
2019-04-05T23:01:22.745Z,67.68
2019-04-05T23:03:53.819Z,67.91
2019-04-05T23:06:24.708Z,68.04
2019-04-05T23:08:55.612Z,68.01
2019-04-05T23:11:26.405Z,67.72
2019-04-05T23:13:57.225Z,67.62
2019-04-05T23:16:27.861Z,67.08
2019-04-05T23:18:58.662Z,67.35
2019-04-05T23:21:29.369Z,67.08
2019-04-05T23:24:00.067Z,67.78
2019-04-05T23:26:30.854Z,68.02
2019-04-05T23:29:01.486Z,67.45
2019-04-05T23:31:32.656Z,67.96
2019-04-05T23:34:03.403Z,68.48
2019-04-05T23:36:34.106Z,68.25
2019-04-05T23:39:06.353Z,69.27
2019-04-05T23:41:37.172Z,68.87
2019-04-05T23:44:07.792Z,68.43
2019-04-05T23:46:38.660Z,67.79
2019-04-05T23:49:09.418Z,68.21
2019-04-05T23:51:40.161Z,68.42
2019-04-05T23:54:10.993Z,69.05
2019-04-05T23:56:41.747Z,68.12
2019-04-05T23:59:13.430Z,67.96
